sensor_id;sensor_type;location;lat;lon;timestamp;pressure;altitude;pressure_sealevel;temperature;humidity
21877;BME280;11103;43.788;23.710;2022-12-10T00:01:48;69926.16;;;6.98;100.00
21877;BME280;11103;43.788;23.710;2022-12-10T00:04:14;69714.03;;;7.00;100.00
21877;BME280;11103;43.788;23.710;2022-12-10T00:06:40;69851.47;;;7.08;100.00
21877;BME280;11103;43.788;23.710;2022-12-10T00:09:09;70212.84;;;6.99;100.00
21877;BME280;11103;43.788;23.710;2022-12-10T00:11:37;70329.34;;;7.06;100.00
21877;BME280;11103;43.788;23.710;2022-12-10T00:14:04;69574.03;;;7.03;100.00
21877;BME280;11103;43.788;23.710;2022-12-10T00:16:32;68074.91;;;7.05;100.00
21877;BME280;11103;43.788;23.710;2022-12-10T00:18:58;68682.59;;;7.05;100.00
21877;BME280;11103;43.788;23.710;2022-12-10T00:21:27;68957.19;;;7.04;100.00
21877;BME280;11103;43.788;23.710;2022-12-10T00:23:54;67206.19;;;7.06;100.00
21877;BME280;11103;43.788;23.710;2022-12-10T00:26:22;67477.94;;;7.07;100.00
21877;BME280;11103;43.788;23.710;2022-12-10T00:28:49;67257.75;;;6.83;100.00
21877;BME280;11103;43.788;23.710;2022-12-10T00:31:18;67162.38;;;7.10;100.00
21877;BME280;11103;43.788;23.710;2022-12-10T00:33:44;68716.06;;;7.09;100.00
21877;BME280;11103;43.788;23.710;2022-12-10T00:36:12;68004.56;;;6.99;100.00
21877;BME280;11103;43.788;23.710;2022-12-10T00:38:38;67650.94;;;7.00;100.00
21877;BME280;11103;43.788;23.710;2022-12-10T00:41:04;67890.09;;;7.02;100.00
21877;BME280;11103;43.788;23.710;2022-12-10T00:43:30;67554.31;;;7.09;100.00
21877;BME280;11103;43.788;23.710;2022-12-10T00:45:56;66637.59;;;7.07;100.00
21877;BME280;11103;43.788;23.710;2022-12-10T00:48:22;66844.25;;;6.96;100.00
21877;BME280;11103;43.788;23.710;2022-12-10T00:51:02;67619.31;;;7.10;100.00
21877;BME280;11103;43.788;23.710;2022-12-10T00:53:30;67389.00;;;7.03;100.00
21877;BME280;11103;43.788;23.710;2022-12-10T00:55:57;67650.34;;;7.13;100.00
21877;BME280;11103;43.788;23.710;2022-12-10T00:58:23;67983.66;;;7.12;100.00
21877;BME280;11103;43.788;23.710;2022-12-10T01:00:49;68421.81;;;7.09;100.00
21877;BME280;11103;43.788;23.710;2022-12-10T01:03:15;68189.69;;;7.13;100.00
21877;BME280;11103;43.788;23.710;2022-12-10T01:05:41;68424.38;;;7.09;100.00
21877;BME280;11103;43.788;23.710;2022-12-10T01:08:06;70529.63;;;7.11;100.00
21877;BME280;11103;43.788;23.710;2022-12-10T01:10:32;68641.44;;;7.09;100.00
21877;BME280;11103;43.788;23.710;2022-12-10T01:12:58;66901.72;;;7.01;100.00
21877;BME280;11103;43.788;23.710;2022-12-10T01:15:23;64080.69;;;6.95;100.00
21877;BME280;11103;43.788;23.710;2022-12-10T01:17:49;63072.13;;;7.00;100.00
21877;BME280;11103;43.788;23.710;2022-12-10T01:20:14;63452.63;;;6.96;100.00
21877;BME280;11103;43.788;23.710;2022-12-10T01:22:40;63696.06;;;7.04;100.00
21877;BME280;11103;43.788;23.710;2022-12-10T01:25:05;64578.13;;;7.06;100.00
21877;BME280;11103;43.788;23.710;2022-12-10T01:27:32;65854.44;;;7.05;100.00
21877;BME280;11103;43.788;23.710;2022-12-10T01:29:57;66223.38;;;7.08;100.00
21877;BME280;11103;43.788;23.710;2022-12-10T01:32:22;65971.88;;;7.09;100.00
21877;BME280;11103;43.788;23.710;2022-12-10T01:34:48;65417.03;;;7.04;100.00
21877;BME280;11103;43.788;23.710;2022-12-10T01:37:13;65263.47;;;7.12;100.00
21877;BME280;11103;43.788;23.710;2022-12-10T01:39:39;64928.13;;;7.11;100.00
21877;BME280;11103;43.788;23.710;2022-12-10T01:42:04;65255.72;;;6.94;100.00
21877;BME280;11103;43.788;23.710;2022-12-10T01:46:58;59702.16;;;6.96;100.00
21877;BME280;11103;43.788;23.710;2022-12-10T01:49:37;56177.34;;;6.73;100.00
21877;BME280;11103;43.788;23.710;2022-12-10T01:52:04;54277.13;;;6.93;100.00
21877;BME280;11103;43.788;23.710;2022-12-10T01:54:33;52999.00;;;6.88;100.00
21877;BME280;11103;43.788;23.710;2022-12-10T01:57:02;48504.16;;;6.79;100.00
21877;BME280;11103;43.788;23.710;2022-12-10T01:59:28;45372.22;;;6.73;100.00
21877;BME280;11103;43.788;23.710;2022-12-10T02:07:24;43666.56;;;6.76;100.00
21877;BME280;11103;43.788;23.710;2022-12-10T02:15:15;42420.84;;;6.94;100.00
21877;BME280;11103;43.788;23.710;2022-12-10T02:17:56;44421.63;;;6.92;100.00
21877;BME280;11103;43.788;23.710;2022-12-10T02:20:32;47086.78;;;6.92;100.00
21877;BME280;11103;43.788;23.710;2022-12-10T02:23:05;48748.84;;;6.95;100.00
21877;BME280;11103;43.788;23.710;2022-12-10T02:25:51;49205.75;;;6.95;100.00
21877;BME280;11103;43.788;23.710;2022-12-10T02:30:44;48108.44;;;6.94;100.00
21877;BME280;11103;43.788;23.710;2022-12-10T02:33:12;48759.75;;;6.90;100.00
21877;BME280;11103;43.788;23.710;2022-12-10T02:35:39;49320.94;;;6.99;100.00
21877;BME280;11103;43.788;23.710;2022-12-10T02:38:19;50392.09;;;7.10;100.00
21877;BME280;11103;43.788;23.710;2022-12-10T02:40:50;54958.00;;;7.03;100.00
21877;BME280;11103;43.788;23.710;2022-12-10T02:43:17;58035.66;;;7.07;100.00
21877;BME280;11103;43.788;23.710;2022-12-10T02:45:43;58804.97;;;7.00;100.00
21877;BME280;11103;43.788;23.710;2022-12-10T02:48:10;58692.59;;;6.68;100.00
21877;BME280;11103;43.788;23.710;2022-12-10T02:50:37;57347.09;;;6.88;100.00
21877;BME280;11103;43.788;23.710;2022-12-10T02:53:03;55591.94;;;6.88;100.00
21877;BME280;11103;43.788;23.710;2022-12-10T03:01:44;52211.78;;;7.00;100.00
21877;BME280;11103;43.788;23.710;2022-12-10T03:07:14;49250.88;;;6.89;100.00
21877;BME280;11103;43.788;23.710;2022-12-10T03:09:48;47444.50;;;6.89;100.00
21877;BME280;11103;43.788;23.710;2022-12-10T03:12:30;46840.34;;;6.89;100.00
21877;BME280;11103;43.788;23.710;2022-12-10T03:15:02;48836.94;;;6.77;100.00
21877;BME280;11103;43.788;23.710;2022-12-10T03:17:31;48797.50;;;6.96;100.00
21877;BME280;11103;43.788;23.710;2022-12-10T03:19:58;47866.50;;;6.87;100.00
21877;BME280;11103;43.788;23.710;2022-12-10T03:22:26;48158.31;;;6.90;100.00
21877;BME280;11103;43.788;23.710;2022-12-10T03:24:52;47789.13;;;6.86;100.00
21877;BME280;11103;43.788;23.710;2022-12-10T03:27:20;44483.19;;;6.87;100.00
21877;BME280;11103;43.788;23.710;2022-12-10T03:29:50;43727.75;;;6.83;100.00
21877;BME280;11103;43.788;23.710;2022-12-10T03:32:18;41770.78;;;6.88;100.00
21877;BME280;11103;43.788;23.710;2022-12-10T03:34:46;40465.28;;;6.86;100.00
21877;BME280;11103;43.788;23.710;2022-12-10T03:37:13;37976.97;;;6.85;100.00
21877;BME280;11103;43.788;23.710;2022-12-10T03:39:39;37580.69;;;6.83;100.00
21877;BME280;11103;43.788;23.710;2022-12-10T03:42:06;37666.34;;;6.82;100.00
21877;BME280;11103;43.788;23.710;2022-12-10T03:44:36;36180.00;;;6.79;100.00
21877;BME280;11103;43.788;23.710;2022-12-10T03:47:03;33210.00;;;6.65;100.00
21877;BME280;11103;43.788;23.710;2022-12-10T03:49:29;30927.72;;;6.78;100.00
21877;BME280;11103;43.788;23.710;2022-12-10T03:51:54;29765.59;;;6.85;100.00
21877;BME280;11103;43.788;23.710;2022-12-10T03:54:20;31634.66;;;6.87;100.00
21877;BME280;11103;43.788;23.710;2022-12-10T03:56:46;34750.06;;;6.76;100.00
21877;BME280;11103;43.788;23.710;2022-12-10T03:59:11;35913.91;;;6.78;100.00
21877;BME280;11103;43.788;23.710;2022-12-10T04:01:36;35937.81;;;6.92;100.00
21877;BME280;11103;43.788;23.710;2022-12-10T04:04:05;36890.63;;;6.95;100.00
21877;BME280;11103;43.788;23.710;2022-12-10T04:06:31;40006.44;;;6.78;100.00
21877;BME280;11103;43.788;23.710;2022-12-10T04:08:57;40681.22;;;6.94;100.00
21877;BME280;11103;43.788;23.710;2022-12-10T04:11:22;41075.59;;;7.00;100.00
21877;BME280;11103;43.788;23.710;2022-12-10T04:13:48;42522.16;;;7.04;100.00
21877;BME280;11103;43.788;23.710;2022-12-10T04:16:33;45416.28;;;7.03;100.00
21877;BME280;11103;43.788;23.710;2022-12-10T04:19:07;46585.69;;;6.97;100.00
21877;BME280;11103;43.788;23.710;2022-12-10T04:21:35;47498.97;;;7.03;100.00
21877;BME280;11103;43.788;23.710;2022-12-10T04:24:24;49672.19;;;7.00;100.00
21877;BME280;11103;43.788;23.710;2022-12-10T04:27:31;48289.50;;;6.98;100.00
21877;BME280;11103;43.788;23.710;2022-12-10T04:29:58;46988.53;;;7.02;100.00
21877;BME280;11103;43.788;23.710;2022-12-10T04:32:25;46931.53;;;6.98;100.00
21877;BME280;11103;43.788;23.710;2022-12-10T04:34:51;46886.31;;;6.95;100.00
21877;BME280;11103;43.788;23.710;2022-12-10T04:37:17;47813.22;;;6.87;100.00
21877;BME280;11103;43.788;23.710;2022-12-10T04:39:43;48454.59;;;7.10;100.00
21877;BME280;11103;43.788;23.710;2022-12-10T04:42:08;49985.72;;;7.10;100.00
21877;BME280;11103;43.788;23.710;2022-12-10T04:44:34;51704.66;;;7.09;100.00
21877;BME280;11103;43.788;23.710;2022-12-10T04:47:00;53751.13;;;7.04;100.00
21877;BME280;11103;43.788;23.710;2022-12-10T04:49:25;53941.19;;;7.06;100.00
21877;BME280;11103;43.788;23.710;2022-12-10T04:51:51;54850.94;;;7.08;100.00
21877;BME280;11103;43.788;23.710;2022-12-10T04:54:18;56020.47;;;7.10;100.00
21877;BME280;11103;43.788;23.710;2022-12-10T04:56:44;57530.13;;;7.08;100.00
21877;BME280;11103;43.788;23.710;2022-12-10T04:59:10;57416.56;;;7.09;100.00
21877;BME280;11103;43.788;23.710;2022-12-10T05:01:36;57804.50;;;7.10;100.00
21877;BME280;11103;43.788;23.710;2022-12-10T05:04:05;58972.19;;;7.14;100.00
21877;BME280;11103;43.788;23.710;2022-12-10T05:06:31;59493.72;;;7.11;100.00
21877;BME280;11103;43.788;23.710;2022-12-10T05:08:57;60971.81;;;7.12;100.00
21877;BME280;11103;43.788;23.710;2022-12-10T05:11:24;62148.25;;;6.83;100.00
21877;BME280;11103;43.788;23.710;2022-12-10T05:13:51;60087.56;;;7.07;100.00
21877;BME280;11103;43.788;23.710;2022-12-10T05:16:18;58953.13;;;6.98;100.00
21877;BME280;11103;43.788;23.710;2022-12-10T05:18:44;58231.66;;;7.00;100.00
21877;BME280;11103;43.788;23.710;2022-12-10T05:21:12;59033.22;;;7.09;100.00
21877;BME280;11103;43.788;23.710;2022-12-10T05:23:39;60636.84;;;7.08;100.00
21877;BME280;11103;43.788;23.710;2022-12-10T05:26:07;61064.47;;;7.10;100.00
21877;BME280;11103;43.788;23.710;2022-12-10T05:28:39;60950.56;;;6.94;100.00
21877;BME280;11103;43.788;23.710;2022-12-10T05:31:05;59012.63;;;6.94;100.00
21877;BME280;11103;43.788;23.710;2022-12-10T05:33:36;52108.63;;;6.84;100.00
21877;BME280;11103;43.788;23.710;2022-12-10T05:36:03;46676.34;;;6.87;100.00
21877;BME280;11103;43.788;23.710;2022-12-10T05:38:31;44682.72;;;6.92;100.00
21877;BME280;11103;43.788;23.710;2022-12-10T05:41:12;42935.16;;;6.94;100.00
21877;BME280;11103;43.788;23.710;2022-12-10T05:43:39;42263.66;;;6.90;100.00
21877;BME280;11103;43.788;23.710;2022-12-10T05:46:06;41431.81;;;6.89;100.00
21877;BME280;11103;43.788;23.710;2022-12-10T05:48:33;40510.50;;;6.89;100.00
21877;BME280;11103;43.788;23.710;2022-12-10T05:51:21;38946.50;;;6.93;100.00
21877;BME280;11103;43.788;23.710;2022-12-10T05:53:47;39168.50;;;6.92;100.00
21877;BME280;11103;43.788;23.710;2022-12-10T05:56:15;40483.38;;;6.94;100.00
21877;BME280;11103;43.788;23.710;2022-12-10T05:58:42;39784.28;;;6.93;100.00
21877;BME280;11103;43.788;23.710;2022-12-10T06:01:11;39852.59;;;6.97;100.00
21877;BME280;11103;43.788;23.710;2022-12-10T06:03:37;39114.84;;;6.99;100.00
21877;BME280;11103;43.788;23.710;2022-12-10T06:06:03;40944.59;;;6.98;100.00
21877;BME280;11103;43.788;23.710;2022-12-10T06:08:29;40050.06;;;6.93;100.00
21877;BME280;11103;43.788;23.710;2022-12-10T06:10:55;39554.22;;;6.97;100.00
21877;BME280;11103;43.788;23.710;2022-12-10T06:13:22;41216.72;;;7.03;100.00
21877;BME280;11103;43.788;23.710;2022-12-10T06:15:48;43563.13;;;7.06;100.00
21877;BME280;11103;43.788;23.710;2022-12-10T06:18:13;44059.22;;;7.12;100.00
21877;BME280;11103;43.788;23.710;2022-12-10T06:20:39;45562.91;;;7.15;100.00
21877;BME280;11103;43.788;23.710;2022-12-10T06:23:05;47217.19;;;7.15;100.00
21877;BME280;11103;43.788;23.710;2022-12-10T06:25:31;50604.13;;;7.09;100.00
21877;BME280;11103;43.788;23.710;2022-12-10T06:27:56;53691.59;;;7.19;100.00
21877;BME280;11103;43.788;23.710;2022-12-10T06:30:22;54990.31;;;7.18;100.00
21877;BME280;11103;43.788;23.710;2022-12-10T06:32:47;56812.97;;;7.06;100.00
21877;BME280;11103;43.788;23.710;2022-12-10T06:35:13;56754.31;;;6.88;100.00
21877;BME280;11103;43.788;23.710;2022-12-10T06:37:38;53159.09;;;7.07;100.00
21877;BME280;11103;43.788;23.710;2022-12-10T06:40:04;51357.47;;;7.10;100.00
21877;BME280;11103;43.788;23.710;2022-12-10T06:42:30;50995.94;;;7.12;100.00
21877;BME280;11103;43.788;23.710;2022-12-10T06:44:56;52209.38;;;7.19;100.00
21877;BME280;11103;43.788;23.710;2022-12-10T06:47:21;54074.31;;;7.24;100.00
21877;BME280;11103;43.788;23.710;2022-12-10T06:49:47;56923.56;;;7.23;100.00
21877;BME280;11103;43.788;23.710;2022-12-10T06:52:13;59864.53;;;7.28;100.00
21877;BME280;11103;43.788;23.710;2022-12-10T06:54:38;62212.34;;;7.18;100.00
21877;BME280;11103;43.788;23.710;2022-12-10T06:57:03;62590.22;;;7.12;100.00
21877;BME280;11103;43.788;23.710;2022-12-10T06:59:29;62125.19;;;7.11;100.00
21877;BME280;11103;43.788;23.710;2022-12-10T07:01:54;61697.50;;;7.28;100.00
21877;BME280;11103;43.788;23.710;2022-12-10T07:04:20;61795.38;;;7.19;100.00
21877;BME280;11103;43.788;23.710;2022-12-10T07:06:45;64049.06;;;7.26;100.00
21877;BME280;11103;43.788;23.710;2022-12-10T07:09:11;63771.09;;;7.22;100.00
21877;BME280;11103;43.788;23.710;2022-12-10T07:11:36;65300.69;;;7.25;100.00
21877;BME280;11103;43.788;23.710;2022-12-10T07:14:02;65932.06;;;7.17;100.00
21877;BME280;11103;43.788;23.710;2022-12-10T07:16:29;65904.00;;;7.01;100.00
21877;BME280;11103;43.788;23.710;2022-12-10T07:18:57;64595.13;;;7.08;100.00
21877;BME280;11103;43.788;23.710;2022-12-10T07:23:53;59981.56;;;7.05;100.00
21877;BME280;11103;43.788;23.710;2022-12-10T07:26:20;58436.34;;;7.03;100.00
21877;BME280;11103;43.788;23.710;2022-12-10T07:40:39;59353.31;;;7.21;100.00
21877;BME280;11103;43.788;23.710;2022-12-10T07:43:04;63939.84;;;7.31;100.00
21877;BME280;11103;43.788;23.710;2022-12-10T07:45:30;65237.94;;;7.12;100.00
21877;BME280;11103;43.788;23.710;2022-12-10T07:47:55;64508.41;;;7.42;100.00
21877;BME280;11103;43.788;23.710;2022-12-10T07:50:21;65212.00;;;7.44;100.00
21877;BME280;11103;43.788;23.710;2022-12-10T07:52:46;67648.41;;;7.40;100.00
21877;BME280;11103;43.788;23.710;2022-12-10T07:55:12;72460.47;;;7.55;100.00
21877;BME280;11103;43.788;23.710;2022-12-10T07:57:37;76582.66;;;7.54;100.00
21877;BME280;11103;43.788;23.710;2022-12-10T08:00:03;75844.38;;;7.53;100.00
21877;BME280;11103;43.788;23.710;2022-12-10T08:02:29;74835.56;;;7.55;100.00
21877;BME280;11103;43.788;23.710;2022-12-10T08:04:54;75528.72;;;7.53;100.00
21877;BME280;11103;43.788;23.710;2022-12-10T08:07:19;74080.34;;;7.51;100.00
21877;BME280;11103;43.788;23.710;2022-12-10T08:09:45;74122.53;;;7.46;100.00
21877;BME280;11103;43.788;23.710;2022-12-10T08:12:10;73800.75;;;7.59;100.00
21877;BME280;11103;43.788;23.710;2022-12-10T08:14:36;74134.13;;;7.55;100.00
21877;BME280;11103;43.788;23.710;2022-12-10T08:17:01;73654.84;;;7.53;100.00
21877;BME280;11103;43.788;23.710;2022-12-10T08:19:27;75755.09;;;7.63;100.00
21877;BME280;11103;43.788;23.710;2022-12-10T08:21:52;76339.56;;;7.31;100.00
21877;BME280;11103;43.788;23.710;2022-12-10T08:24:17;77356.19;;;7.52;100.00
21877;BME280;11103;43.788;23.710;2022-12-10T08:26:43;80903.84;;;7.63;100.00
21877;BME280;11103;43.788;23.710;2022-12-10T08:29:08;87269.38;;;7.46;100.00
21877;BME280;11103;43.788;23.710;2022-12-10T08:31:33;84210.22;;;7.35;100.00
21877;BME280;11103;43.788;23.710;2022-12-10T08:33:59;76979.84;;;7.44;100.00
21877;BME280;11103;43.788;23.710;2022-12-10T08:36:24;73828.22;;;7.46;100.00
21877;BME280;11103;43.788;23.710;2022-12-10T08:38:50;74004.16;;;7.44;100.00
21877;BME280;11103;43.788;23.710;2022-12-10T08:41:18;72211.91;;;7.45;100.00
21877;BME280;11103;43.788;23.710;2022-12-10T08:43:44;73127.25;;;7.24;100.00
21877;BME280;11103;43.788;23.710;2022-12-10T08:46:12;77593.91;;;7.53;100.00
21877;BME280;11103;43.788;23.710;2022-12-10T08:48:38;81387.38;;;7.53;100.00
21877;BME280;11103;43.788;23.710;2022-12-10T08:51:05;80274.00;;;7.73;100.00
21877;BME280;11103;43.788;23.710;2022-12-10T08:53:31;80304.50;;;7.82;100.00
21877;BME280;11103;43.788;23.710;2022-12-10T08:55:57;83871.38;;;7.96;100.00
21877;BME280;11103;43.788;23.710;2022-12-10T08:58:22;94683.72;;;7.73;100.00
21877;BME280;11103;43.788;23.710;2022-12-10T09:00:48;98673.09;;;7.87;100.00
21877;BME280;11103;43.788;23.710;2022-12-10T09:03:15;102162.44;;;7.96;100.00
21877;BME280;11103;43.788;23.710;2022-12-10T09:05:41;104516.63;;;7.86;100.00
21877;BME280;11103;43.788;23.710;2022-12-10T09:08:06;105971.09;;;7.90;100.00
21877;BME280;11103;43.788;23.710;2022-12-10T09:10:32;100080.69;;;7.71;100.00
21877;BME280;11103;43.788;23.710;2022-12-10T09:12:57;98573.03;;;8.05;100.00
21877;BME280;11103;43.788;23.710;2022-12-10T09:15:23;104841.16;;;8.14;100.00
21877;BME280;11103;43.788;23.710;2022-12-10T09:17:48;107721.69;;;8.11;100.00
21877;BME280;11103;43.788;23.710;2022-12-10T09:20:14;104527.00;;;8.29;100.00
21877;BME280;11103;43.788;23.710;2022-12-10T09:22:45;107450.19;;;8.32;100.00
21877;BME280;11103;43.788;23.710;2022-12-10T09:25:11;115817.22;;;8.37;100.00
21877;BME280;11103;43.788;23.710;2022-12-10T09:27:40;115826.22;;;8.42;100.00
21877;BME280;11103;43.788;23.710;2022-12-10T09:30:06;119633.59;;;8.45;100.00
21877;BME280;11103;43.788;23.710;2022-12-10T09:32:32;120770.78;;;8.21;100.00
21877;BME280;11103;43.788;23.710;2022-12-10T09:34:57;116760.38;;;8.48;100.00
21877;BME280;11103;43.788;23.710;2022-12-10T09:37:22;129126.44;;;8.49;100.00
21877;BME280;11103;43.788;23.710;2022-12-10T09:39:48;131797.34;;;8.16;100.00
21877;BME280;11103;43.788;23.710;2022-12-10T09:47:31;129700.50;;;8.91;100.00
21877;BME280;11103;43.788;23.710;2022-12-10T09:50:31;134635.47;;;9.06;100.00
21877;BME280;11103;43.788;23.710;2022-12-10T09:53:00;140944.22;;;8.97;100.00
21877;BME280;11103;43.788;23.710;2022-12-10T09:55:38;145211.84;;;9.01;100.00
21877;BME280;11103;43.788;23.710;2022-12-10T09:58:09;144970.22;;;8.75;100.00
21877;BME280;11103;43.788;23.710;2022-12-10T10:00:40;144007.66;;;8.99;100.00
21877;BME280;11103;43.788;23.710;2022-12-10T10:03:12;145634.59;;;8.90;100.00
21877;BME280;11103;43.788;23.710;2022-12-10T10:05:41;144216.00;;;9.17;100.00
21877;BME280;11103;43.788;23.710;2022-12-10T10:08:36;147277.50;;;9.26;100.00
21877;BME280;11103;43.788;23.710;2022-12-10T10:11:03;148220.00;;;9.25;100.00
21877;BME280;11103;43.788;23.710;2022-12-10T10:13:43;148677.88;;;9.40;100.00
21877;BME280;11103;43.788;23.710;2022-12-10T10:16:33;148785.69;;;9.55;100.00
21877;BME280;11103;43.788;23.710;2022-12-10T10:19:02;148770.31;;;9.49;100.00
21877;BME280;11103;43.788;23.710;2022-12-10T10:21:41;148784.41;;;9.55;100.00
21877;BME280;11103;43.788;23.710;2022-12-10T10:24:13;148739.66;;;9.37;100.00
21877;BME280;11103;43.788;23.710;2022-12-10T10:26:39;148771.59;;;9.50;100.00
21877;BME280;11103;43.788;23.710;2022-12-10T10:29:07;148760.13;;;9.45;100.00
21877;BME280;11103;43.788;23.710;2022-12-10T10:31:34;148786.97;;;9.56;100.00
21877;BME280;11103;43.788;23.710;2022-12-10T10:34:12;148746.06;;;9.40;100.00
21877;BME280;11103;43.788;23.710;2022-12-10T10:36:38;148818.91;;;9.69;100.00
21877;BME280;11103;43.788;23.710;2022-12-10T10:41:47;148827.88;;;9.72;100.00
21877;BME280;11103;43.788;23.710;2022-12-10T10:44:18;148816.34;;;9.68;100.00
21877;BME280;11103;43.788;23.710;2022-12-10T10:46:46;148772.91;;;9.50;100.00
21877;BME280;11103;43.788;23.710;2022-12-10T10:49:26;148776.72;;;9.52;100.00
21877;BME280;11103;43.788;23.710;2022-12-10T10:51:54;148752.44;;;9.42;100.00
21877;BME280;11103;43.788;23.710;2022-12-10T10:54:43;148721.31;;;9.37;100.00
21877;BME280;11103;43.788;23.710;2022-12-10T10:57:38;148600.38;;;9.22;100.00
21877;BME280;11103;43.788;23.710;2022-12-10T11:00:18;147565.03;;;9.35;100.00
21877;BME280;11103;43.788;23.710;2022-12-10T11:02:44;147950.22;;;9.38;100.00
21877;BME280;11103;43.788;23.710;2022-12-10T11:07:43;146756.88;;;9.30;100.00
21877;BME280;11103;43.788;23.710;2022-12-10T11:10:21;145686.00;;;9.56;100.00
21877;BME280;11103;43.788;23.710;2022-12-10T11:12:58;147468.69;;;9.58;100.00
21877;BME280;11103;43.788;23.710;2022-12-10T11:15:38;148809.94;;;9.65;100.00
21877;BME280;11103;43.788;23.710;2022-12-10T11:23:27;148849.63;;;9.81;100.00
21877;BME280;11103;43.788;23.710;2022-12-10T11:31:36;148841.97;;;9.78;100.00
21877;BME280;11103;43.788;23.710;2022-12-10T11:34:13;148818.91;;;9.69;100.00
21877;BME280;11103;43.788;23.710;2022-12-10T11:41:53;148790.78;;;9.57;100.00
21877;BME280;11103;43.788;23.710;2022-12-10T11:44:43;148792.06;;;9.58;100.00
21877;BME280;11103;43.788;23.710;2022-12-10T11:47:29;148813.81;;;9.67;100.00
21877;BME280;11103;43.788;23.710;2022-12-10T11:50:15;148775.44;;;9.51;100.00
21877;BME280;11103;43.788;23.710;2022-12-10T12:00:26;148818.91;;;9.69;100.00
21877;BME280;11103;43.788;23.710;2022-12-10T12:16:47;148781.81;;;9.54;100.00
21877;BME280;11103;43.788;23.710;2022-12-10T12:19:22;148563.81;;;9.39;100.00
21877;BME280;11103;43.788;23.710;2022-12-10T12:21:50;148444.13;;;9.63;100.00
21877;BME280;11103;43.788;23.710;2022-12-10T12:24:20;148774.78;;;9.62;100.00
21877;BME280;11103;43.788;23.710;2022-12-10T12:26:53;148806.13;;;9.64;100.00
21877;BME280;11103;43.788;23.710;2022-12-10T12:29:25;148806.13;;;9.64;100.00
21877;BME280;11103;43.788;23.710;2022-12-10T12:32:17;148795.88;;;9.59;100.00
21877;BME280;11103;43.788;23.710;2022-12-10T12:35:04;148813.81;;;9.67;100.00
21877;BME280;11103;43.788;23.710;2022-12-10T12:37:42;148797.16;;;9.60;100.00
21877;BME280;11103;43.788;23.710;2022-12-10T12:40:15;148765.22;;;9.47;100.00
21877;BME280;11103;43.788;23.710;2022-12-10T12:43:01;148803.56;;;9.63;100.00
21877;BME280;11103;43.788;23.710;2022-12-10T12:45:40;148776.72;;;9.52;100.00
21877;BME280;11103;43.788;23.710;2022-12-10T12:48:20;148709.59;;;9.55;100.00
21877;BME280;11103;43.788;23.710;2022-12-10T12:51:03;148271.00;;;9.45;100.00
21877;BME280;11103;43.788;23.710;2022-12-10T12:53:30;148304.97;;;9.65;100.00
21877;BME280;11103;43.788;23.710;2022-12-10T12:56:05;148753.72;;;9.43;100.00
21877;BME280;11103;43.788;23.710;2022-12-10T12:58:33;148724.31;;;9.31;100.00
21877;BME280;11103;43.788;23.710;2022-12-10T13:03:42;141637.81;;;9.31;100.00
21877;BME280;11103;43.788;23.710;2022-12-10T13:06:19;143673.56;;;9.20;100.00
21877;BME280;11103;43.788;23.710;2022-12-10T13:09:33;139758.78;;;9.27;100.00
21877;BME280;11103;43.788;23.710;2022-12-10T13:11:35;138153.16;;;9.27;100.00
21877;BME280;11103;43.788;23.710;2022-12-10T13:14:31;141122.13;;;9.18;100.00
21877;BME280;11103;43.788;23.710;2022-12-10T13:17:08;140763.66;;;9.12;100.00
21877;BME280;11103;43.788;23.710;2022-12-10T13:19:34;135918.69;;;9.17;100.00
21877;BME280;11103;43.788;23.710;2022-12-10T13:29:47;133015.09;;;9.04;100.00
21877;BME280;11103;43.788;23.710;2022-12-10T13:37:35;126547.72;;;9.07;100.00
21877;BME280;11103;43.788;23.710;2022-12-10T13:42:36;124284.31;;;9.11;100.00
21877;BME280;11103;43.788;23.710;2022-12-10T13:47:53;122255.13;;;9.06;100.00
21877;BME280;11103;43.788;23.710;2022-12-10T13:51:11;120791.13;;;9.10;100.00
21877;BME280;11103;43.788;23.710;2022-12-10T13:53:39;118964.63;;;9.12;100.00
21877;BME280;11103;43.788;23.710;2022-12-10T13:56:28;120327.69;;;9.06;100.00
21877;BME280;11103;43.788;23.710;2022-12-10T13:59:11;120483.16;;;9.12;100.00
21877;BME280;11103;43.788;23.710;2022-12-10T14:01:46;118239.03;;;9.08;100.00
21877;BME280;11103;43.788;23.710;2022-12-10T14:06:56;114225.25;;;9.05;100.00
21877;BME280;11103;43.788;23.710;2022-12-10T14:09:46;116156.72;;;9.04;100.00
21877;BME280;11103;43.788;23.710;2022-12-10T14:12:17;115027.28;;;9.18;100.00
21877;BME280;11103;43.788;23.710;2022-12-10T14:14:47;119426.03;;;9.24;100.00
21877;BME280;11103;43.788;23.710;2022-12-10T14:17:16;119647.84;;;9.13;100.00
21877;BME280;11103;43.788;23.710;2022-12-10T14:19:45;120374.91;;;9.20;100.00
21877;BME280;11103;43.788;23.710;2022-12-10T14:22:31;117834.66;;;9.29;100.00
21877;BME280;11103;43.788;23.710;2022-12-10T14:25:00;113649.84;;;9.20;100.00
21877;BME280;11103;43.788;23.710;2022-12-10T14:27:27;119858.47;;;9.13;100.00
21877;BME280;11103;43.788;23.710;2022-12-10T14:30:17;118109.31;;;9.26;100.00
21877;BME280;11103;43.788;23.710;2022-12-10T14:32:44;116090.16;;;9.11;100.00
21877;BME280;11103;43.788;23.710;2022-12-10T14:35:21;116181.13;;;9.24;100.00
21877;BME280;11103;43.788;23.710;2022-12-10T14:37:48;114864.41;;;9.21;100.00
21877;BME280;11103;43.788;23.710;2022-12-10T14:40:29;111719.28;;;9.18;100.00
21877;BME280;11103;43.788;23.710;2022-12-10T14:43:02;110436.06;;;8.97;100.00
21877;BME280;11103;43.788;23.710;2022-12-10T14:45:35;105531.50;;;8.97;100.00
21877;BME280;11103;43.788;23.710;2022-12-10T14:48:04;102554.44;;;8.97;100.00
21877;BME280;11103;43.788;23.710;2022-12-10T14:50:32;101643.97;;;8.97;100.00